Time;durP1;ratioP1;P1;durP2;ratioP2;P2;SDS_P1;SDS_P2;PMS_P1;PMS_P2;Temp;Humidity;BMP_temperature;BMP_pressure;BME280_temperature;BME280_humidity;BME280_pressure;Samples;Min_cycle;Max_cycle;Signal;HPM_P1;HPM_P2
2021/11/08 06:58:58;;;;;;;29.23;8.13;;;9.60;99.90;;;;;;5877363;23;20919;-89
2021/11/08 07:01:28;;;;;;;32.35;8.85;;;9.60;99.90;;;;;;4856446;29;20109;-88
2021/11/08 07:03:58;;;;;;;37.35;8.70;;;9.70;99.90;;;;;;4856704;29;20046;-92
2021/11/08 07:06:25;;;;;;;41.28;9.65;;;9.70;99.90;;;;;;4862919;29;20045;-88
2021/11/08 07:08:52;;;;;;;38.53;9.35;;;9.70;99.90;;;;;;4846855;29;20054;-92
2021/11/08 07:11:19;;;;;;;40.40;8.23;;;9.70;99.90;;;;;;4861396;29;20075;-89
2021/11/08 07:13:47;;;;;;;24.95;6.82;;;9.70;99.90;;;;;;4849826;29;20079;-87
2021/11/08 07:16:15;;;;;;;37.33;7.15;;;9.80;99.90;;;;;;4863244;29;20046;-88
2021/11/08 07:18:42;;;;;;;36.92;8.63;;;9.80;99.90;;;;;;4850787;29;20049;-87
2021/11/08 07:21:09;;;;;;;42.45;8.27;;;9.80;99.90;;;;;;4863882;29;20053;-89
2021/11/08 07:23:36;;;;;;;42.88;8.00;;;9.90;99.90;;;;;;4865126;29;20053;-88
2021/11/08 07:26:03;;;;;;;35.03;7.72;;;9.90;99.90;;;;;;4859708;29;20162;-89
2021/11/08 07:28:30;;;;;;;37.55;6.47;;;9.90;99.90;;;;;;4860141;29;20053;-88
2021/11/08 07:30:57;;;;;;;39.13;7.18;;;10.00;99.90;;;;;;4842996;29;20057;-88
2021/11/08 07:33:24;;;;;;;37.88;6.43;;;9.90;99.90;;;;;;4859370;29;24863;-89
2021/11/08 07:35:51;;;;;;;40.55;7.88;;;10.00;99.90;;;;;;4856444;29;20086;-89
2021/11/08 07:38:17;;;;;;;31.85;6.30;;;10.00;99.90;;;;;;4860869;29;20387;-88
2021/11/08 07:40:45;;;;;;;38.13;7.40;;;10.00;99.90;;;;;;4853892;29;20111;-89
2021/11/08 07:43:11;;;;;;;34.38;7.30;;;10.00;99.90;;;;;;4873361;29;20102;-89
2021/11/08 07:45:38;;;;;;;39.65;9.10;;;10.00;99.90;;;;;;4861949;29;20132;-89
2021/11/08 07:48:07;;;;;;;33.38;7.18;;;10.10;99.90;;;;;;4863252;29;20506;-89
2021/11/08 07:50:37;;;;;;;37.88;7.38;;;10.10;99.90;;;;;;4863504;29;20076;-89
2021/11/08 07:53:05;;;;;;;32.92;7.30;;;10.10;99.90;;;;;;4846845;29;20054;-88
2021/11/08 07:55:33;;;;;;;33.05;7.18;;;10.20;99.90;;;;;;4846653;29;20053;-89
2021/11/08 07:58:04;;;;;;;48.58;10.23;;;10.20;99.90;;;;;;4844349;29;20073;-89
2021/11/08 08:00:36;;;;;;;40.22;9.50;;;10.20;99.90;;;;;;4869543;29;20113;-88
2021/11/08 08:03:04;;;;;;;60.35;9.68;;;10.30;99.90;;;;;;4847105;29;20061;-89
2021/11/08 08:05:32;;;;;;;35.45;7.95;;;10.30;99.90;;;;;;4846191;29;20479;-88
2021/11/08 08:08:00;;;;;;;35.60;7.85;;;10.40;99.90;;;;;;4863437;29;20577;-89
2021/11/08 08:10:27;;;;;;;49.92;8.45;;;10.40;99.90;;;;;;4845418;29;20098;-90
2021/11/08 08:12:54;;;;;;;52.60;7.25;;;10.40;99.90;;;;;;4859728;29;20538;-89
2021/11/08 08:15:21;;;;;;;61.28;7.82;;;10.50;99.90;;;;;;4846821;29;20590;-89
2021/11/08 08:17:48;;;;;;;31.55;6.22;;;10.60;99.90;;;;;;4871719;29;20082;-89
2021/11/08 08:20:19;;;;;;;49.30;8.60;;;10.60;99.90;;;;;;4867140;29;20434;-88
2021/11/08 08:22:46;;;;;;;43.70;7.22;;;10.70;99.90;;;;;;4860126;29;20065;-89
2021/11/08 08:25:13;;;;;;;37.88;8.43;;;10.70;99.90;;;;;;4872774;29;20807;-89
2021/11/08 08:27:42;;;;;;;37.53;6.50;;;10.80;99.90;;;;;;4860824;29;20057;-89
2021/11/08 08:30:10;;;;;;;39.47;5.53;;;10.90;99.90;;;;;;4846645;29;20049;-89
2021/11/08 08:32:37;;;;;;;48.13;5.80;;;10.90;99.90;;;;;;4858795;29;20049;-89
2021/11/08 08:35:05;;;;;;;33.55;5.75;;;11.00;99.90;;;;;;4862394;29;20097;-89
2021/11/08 08:37:32;;;;;;;45.55;7.65;;;11.10;99.90;;;;;;4862214;29;20053;-89
2021/11/08 08:39:59;;;;;;;29.58;5.60;;;11.10;99.90;;;;;;4858628;29;20539;-89
2021/11/08 08:42:27;;;;;;;28.23;5.47;;;11.20;99.90;;;;;;4862580;29;20534;-89
2021/11/08 08:44:54;;;;;;;24.38;5.95;;;11.20;99.90;;;;;;4856274;29;20117;-89
2021/11/08 08:47:21;;;;;;;23.10;5.18;;;11.30;99.90;;;;;;4850229;29;20078;-89
2021/11/08 08:49:49;;;;;;;23.70;6.15;;;11.30;99.90;;;;;;4862247;29;20053;-89
2021/11/08 08:52:18;;;;;;;19.00;4.80;;;11.40;99.90;;;;;;4843457;29;20522;-88
2021/11/08 08:54:45;;;;;;;16.85;5.65;;;11.40;99.90;;;;;;4844546;29;20045;-89
2021/11/08 08:57:12;;;;;;;20.20;4.03;;;11.50;99.90;;;;;;4860021;29;20049;-88
2021/11/08 08:59:41;;;;;;;15.45;4.10;;;11.50;99.90;;;;;;4845494;29;20065;-88
2021/11/08 09:02:09;;;;;;;18.52;4.72;;;11.60;99.90;;;;;;4845513;29;20506;-89
2021/11/08 09:04:37;;;;;;;22.30;6.57;;;11.60;99.90;;;;;;4862129;29;20045;-89
2021/11/08 09:07:05;;;;;;;14.85;5.55;;;11.60;99.90;;;;;;4858451;29;20090;-88
2021/11/08 09:09:34;;;;;;;15.88;5.50;;;11.60;99.90;;;;;;4861387;29;20073;-87
2021/11/08 09:12:03;;;;;;;26.92;6.15;;;11.70;99.90;;;;;;4862432;29;20050;-88
2021/11/08 09:14:31;;;;;;;26.08;9.02;;;11.70;99.90;;;;;;4846298;29;20050;-88
2021/11/08 09:16:59;;;;;;;41.35;10.38;;;11.70;99.90;;;;;;4845475;29;20046;-88
2021/11/08 09:19:26;;;;;;;40.83;9.73;;;11.70;99.90;;;;;;4843900;29;20132;-88
2021/11/08 09:21:53;;;;;;;33.55;11.27;;;11.70;99.90;;;;;;4859081;29;20811;-87
2021/11/08 09:24:22;;;;;;;44.45;18.10;;;11.70;99.90;;;;;;4861956;29;20057;-88
2021/11/08 09:26:50;;;;;;;34.00;15.45;;;11.60;99.90;;;;;;4861700;29;20507;-87
2021/11/08 09:29:20;;;;;;;42.17;15.40;;;11.60;99.90;;;;;;4866935;29;20056;-87
2021/11/08 09:31:48;;;;;;;38.97;14.48;;;11.70;99.90;;;;;;4871131;29;20052;-88
2021/11/08 09:34:20;;;;;;;38.43;10.80;;;11.70;99.90;;;;;;4858777;29;20053;-87
2021/11/08 09:36:48;;;;;;;34.22;10.63;;;11.70;99.90;;;;;;4859476;29;20057;-88
2021/11/08 09:39:35;;;;;;;29.23;10.67;;;11.70;99.90;;;;;;4874849;29;20482;-87
2021/11/08 09:42:08;;;;;;;25.35;9.85;;;11.70;99.90;;;;;;4861806;29;20080;-88
2021/11/08 09:44:36;;;;;;;31.23;9.85;;;11.80;99.90;;;;;;4861353;29;20056;-90
2021/11/08 09:47:03;;;;;;;32.60;10.38;;;11.80;99.90;;;;;;4845287;29;20118;-89
2021/11/08 09:49:32;;;;;;;24.80;9.32;;;11.80;99.90;;;;;;4841308;29;20045;-90
2021/11/08 09:52:01;;;;;;;27.15;10.55;;;11.90;99.90;;;;;;4857761;29;20052;-90
2021/11/08 09:54:40;;;;;;;19.63;10.32;;;11.90;99.90;;;;;;4872407;29;20447;-90
2021/11/08 09:57:07;;;;;;;28.13;14.43;;;11.90;99.90;;;;;;4861814;29;20475;-90
2021/11/08 09:59:35;;;;;;;27.00;11.65;;;12.00;99.90;;;;;;4845269;29;20109;-91
2021/11/08 10:02:13;;;;;;;34.22;15.15;;;12.00;99.90;;;;;;4861578;29;20137;-90
2021/11/08 10:04:42;;;;;;;25.08;10.02;;;12.00;99.90;;;;;;4844931;29;20053;-91
2021/11/08 10:07:10;;;;;;;24.77;10.80;;;12.10;99.90;;;;;;4841181;29;20110;-89
2021/11/08 10:09:38;;;;;;;22.80;9.50;;;12.10;99.90;;;;;;4875746;29;20101;-91
2021/11/08 10:12:11;;;;;;;22.38;8.07;;;12.10;99.90;;;;;;4875562;29;20049;-88
2021/11/08 10:14:40;;;;;;;23.77;8.75;;;12.20;99.90;;;;;;4862341;29;20073;-90
2021/11/08 10:17:07;;;;;;;17.85;8.18;;;12.20;99.90;;;;;;4864354;29;20081;-91
2021/11/08 10:19:35;;;;;;;16.92;6.32;;;12.30;99.90;;;;;;4865149;29;20064;-90
2021/11/08 10:22:03;;;;;;;;;;;12.30;99.90;;;;;;4846696;29;20093;-91
2021/11/08 10:24:34;;;;;;;13.90;7.85;;;12.30;99.90;;;;;;4848260;29;19947;-91
2021/11/08 10:27:08;;;;;;;17.88;7.85;;;12.30;99.90;;;;;;4848963;29;20054;-90
2021/11/08 10:29:40;;;;;;;12.30;5.20;;;12.40;99.90;;;;;;4864327;29;20097;-91
2021/11/08 10:32:09;;;;;;;18.35;5.10;;;12.40;99.90;;;;;;4863743;29;20519;-90
2021/11/08 10:34:49;;;;;;;15.38;5.80;;;12.50;99.90;;;;;;4864558;29;20049;-90
2021/11/08 10:37:28;;;;;;;13.65;5.18;;;12.50;99.90;;;;;;4861845;29;20106;-90
2021/11/08 10:39:58;;;;;;;25.88;5.18;;;12.60;99.90;;;;;;4860866;29;20058;-90
2021/11/08 10:42:27;;;;;;;16.88;5.85;;;12.70;99.90;;;;;;4864451;29;20068;-89
2021/11/08 10:44:55;;;;;;;16.00;5.68;;;12.80;99.90;;;;;;4864083;29;20053;-89
2021/11/08 10:47:22;;;;;;;15.25;5.50;;;12.90;99.90;;;;;;4847754;29;20510;-90
2021/11/08 10:49:55;;;;;;;17.98;5.82;;;12.90;99.90;;;;;;4849762;29;20589;-90
2021/11/08 10:52:32;;;;;;;13.23;5.25;;;12.90;99.90;;;;;;4874600;29;20053;-89
2021/11/08 10:55:02;;;;;;;22.33;5.40;;;13.00;99.90;;;;;;4860258;29;20479;-90
2021/11/08 10:57:30;;;;;;;29.88;6.90;;;13.00;99.90;;;;;;4854413;29;20124;-89
2021/11/08 11:00:00;;;;;;;17.00;6.07;;;13.00;99.90;;;;;;4863451;29;20066;-89
2021/11/08 11:02:31;;;;;;;13.27;5.60;;;13.00;99.90;;;;;;4863758;29;20045;-88
2021/11/08 11:05:02;;;;;;;14.00;4.53;;;13.10;99.90;;;;;;4848003;29;20049;-88
2021/11/08 11:07:35;;;;;;;13.98;4.30;;;13.10;99.90;;;;;;4846622;29;20537;-89
2021/11/08 11:10:09;;;;;;;10.38;4.20;;;13.10;99.90;;;;;;4845642;29;20041;-89
2021/11/08 11:12:42;;;;;;;10.95;4.47;;;13.10;99.90;;;;;;4855701;29;20053;-88
2021/11/08 11:15:14;;;;;;;16.35;5.07;;;13.20;99.90;;;;;;4863306;29;20102;-89
2021/11/08 11:17:51;;;;;;;16.27;6.57;;;13.20;99.90;;;;;;4872496;29;20093;-89
2021/11/08 11:20:32;;;;;;;12.13;4.63;;;13.20;99.90;;;;;;4867728;29;20053;-89
2021/11/08 11:23:27;;;;;;;12.80;4.55;;;13.20;99.90;;;;;;4860136;29;20129;-89
2021/11/08 11:26:01;;;;;;;16.60;5.47;;;13.20;99.90;;;;;;4847326;29;20082;-89
2021/11/08 11:28:35;;;;;;;13.93;5.90;;;13.10;99.90;;;;;;4844875;29;20048;-89
2021/11/08 11:31:19;;;;;;;13.68;4.53;;;13.10;99.90;;;;;;4845099;29;20526;-89
2021/11/08 11:33:53;;;;;;;11.30;4.97;;;13.20;99.90;;;;;;4872679;29;20167;-89
2021/11/08 11:36:23;;;;;;;11.82;4.18;;;13.20;99.90;;;;;;4862145;29;20122;-89
2021/11/08 11:39:03;;;;;;;10.80;4.63;;;13.20;99.90;;;;;;4863000;29;20049;-89
2021/11/08 11:41:33;;;;;;;11.45;4.82;;;13.30;99.90;;;;;;4846494;29;20057;-89
2021/11/08 11:44:04;;;;;;;12.15;4.50;;;13.30;99.90;;;;;;4846400;29;20102;-89
2021/11/08 11:46:36;;;;;;;15.32;4.65;;;13.30;99.90;;;;;;4846045;29;20049;-89
2021/11/08 11:49:05;;;;;;;18.55;5.60;;;13.30;99.90;;;;;;4828884;29;20097;-89
2021/11/08 11:51:39;;;;;;;13.60;5.47;;;13.40;99.90;;;;;;4824987;29;20054;-89
2021/11/08 11:54:08;;;;;;;13.30;6.22;;;13.30;99.90;;;;;;4845878;29;20121;-90
2021/11/08 11:56:38;;;;;;;12.02;5.32;;;13.40;99.90;;;;;;4863480;29;20057;-87
2021/11/08 11:59:06;;;;;;;16.15;5.80;;;13.40;99.90;;;;;;4864403;29;20057;-86
2021/11/08 12:01:35;;;;;;;12.25;5.95;;;13.40;99.90;;;;;;4855456;29;20726;-87
2021/11/08 12:04:22;;;;;;;13.90;5.88;;;13.40;99.90;;;;;;4856558;29;20106;-87
2021/11/08 12:06:55;;;;;;;16.25;6.00;;;13.50;99.90;;;;;;4856347;29;20049;-86
2021/11/08 12:09:22;;;;;;;16.48;6.32;;;13.50;99.90;;;;;;4840455;29;20069;-87
2021/11/08 12:11:54;;;;;;;18.92;6.43;;;13.50;99.90;;;;;;4856234;29;20049;-86
2021/11/08 12:14:26;;;;;;;11.93;6.57;;;13.50;99.90;;;;;;4857600;29;20053;-86
2021/11/08 12:17:02;;;;;;;15.30;6.90;;;13.50;99.90;;;;;;4853310;29;20534;-86
2021/11/08 12:19:35;;;;;;;12.18;6.90;;;13.50;99.90;;;;;;4855953;29;20495;-86
2021/11/08 12:22:11;;;;;;;16.30;7.25;;;13.50;99.90;;;;;;4852167;29;20057;-86
2021/11/08 12:24:38;;;;;;;20.15;7.28;;;13.50;99.90;;;;;;4853226;29;20102;-86
2021/11/08 12:27:10;;;;;;;17.30;9.07;;;13.50;99.90;;;;;;4840467;29;20061;-88
2021/11/08 12:29:53;;;;;;;17.80;7.57;;;13.50;99.90;;;;;;4839490;29;20053;-88
2021/11/08 12:32:20;;;;;;;16.20;6.00;;;13.50;99.90;;;;;;4854481;29;20228;-88
2021/11/08 12:34:55;;;;;;;20.63;7.38;;;13.50;99.90;;;;;;4838487;29;20050;-86
2021/11/08 12:37:35;;;;;;;15.10;7.07;;;13.50;99.90;;;;;;4850382;29;20117;-87
2021/11/08 12:40:04;;;;;;;16.45;8.05;;;13.50;99.90;;;;;;4836629;29;20061;-89
2021/11/08 12:42:43;;;;;;;19.92;7.60;;;13.50;99.90;;;;;;4851665;29;20049;-88
2021/11/08 12:45:23;;;;;;;18.25;7.10;;;13.50;99.90;;;;;;4852697;29;20574;-89
2021/11/08 12:48:10;;;;;;;12.95;8.20;;;13.50;99.90;;;;;;4851795;29;20048;-89
2021/11/08 12:50:41;;;;;;;15.63;7.03;;;13.40;99.90;;;;;;4837082;29;20053;-89
2021/11/08 12:53:31;;;;;;;12.48;6.07;;;13.50;99.90;;;;;;4850405;29;20049;-89
2021/11/08 12:56:20;;;;;;;16.70;8.35;;;13.50;99.90;;;;;;4850951;29;20049;-88
2021/11/08 12:58:51;;;;;;;19.80;8.63;;;13.50;99.90;;;;;;4853639;29;20086;-88
2021/11/08 13:01:20;;;;;;;11.98;6.18;;;13.50;99.90;;;;;;4849259;29;20103;-88
2021/11/08 13:03:51;;;;;;;12.68;6.60;;;13.50;99.90;;;;;;4852948;29;20049;-88
2021/11/08 13:06:30;;;;;;;12.75;6.13;;;13.50;99.90;;;;;;4835171;29;20045;-88
2021/11/08 13:09:11;;;;;;;16.85;6.72;;;13.50;99.90;;;;;;4853312;29;20154;-87
2021/11/08 13:11:42;;;;;;;12.13;6.05;;;13.50;99.90;;;;;;4852692;29;20053;-88
2021/11/08 13:14:20;;;;;;;14.13;6.70;;;13.50;99.90;;;;;;4848788;29;20053;-89
2021/11/08 13:16:51;;;;;;;18.00;7.35;;;13.50;99.90;;;;;;4837436;29;20053;-89
2021/11/08 13:19:19;;;;;;;14.68;8.30;;;13.50;99.90;;;;;;4834515;29;20499;-89
2021/11/08 13:21:46;;;;;;;15.02;8.50;;;13.50;99.90;;;;;;4851599;29;20359;-89
2021/11/08 13:24:14;;;;;;;18.50;8.35;;;13.50;99.90;;;;;;4836521;29;20061;-90
2021/11/08 13:26:46;;;;;;;11.82;7.00;;;13.60;99.90;;;;;;4837306;29;20050;-89
2021/11/08 13:29:16;;;;;;;18.48;7.53;;;13.60;99.90;;;;;;4839326;29;20049;-89
2021/11/08 13:31:43;;;;;;;19.60;6.97;;;13.60;99.90;;;;;;4837005;29;20561;-89
2021/11/08 13:34:13;;;;;;;19.50;9.07;;;13.50;99.90;;;;;;4836335;29;20060;-88
2021/11/08 13:36:46;;;;;;;18.55;7.85;;;13.50;99.90;;;;;;4850881;29;20050;-90
2021/11/08 13:39:13;;;;;;;10.55;6.40;;;13.50;99.90;;;;;;4852690;29;20057;-89
2021/11/08 13:41:41;;;;;;;8.15;5.28;;;13.50;99.90;;;;;;4838867;29;20179;-90
2021/11/08 13:44:10;;;;;;;8.27;4.95;;;13.50;99.90;;;;;;4852092;29;20071;-89
2021/11/08 13:46:40;;;;;;;9.32;5.38;;;13.50;99.90;;;;;;4837987;29;20045;-89
2021/11/08 13:49:13;;;;;;;13.05;6.10;;;13.50;99.90;;;;;;4838768;29;20564;-90
2021/11/08 13:51:44;;;;;;;9.93;5.18;;;13.50;99.90;;;;;;4852307;29;20057;-89
2021/11/08 13:54:16;;;;;;;13.98;5.63;;;13.50;99.90;;;;;;4853701;29;20053;-90
2021/11/08 13:56:51;;;;;;;12.27;5.18;;;13.50;99.90;;;;;;4837196;29;20053;-90
2021/11/08 13:59:27;;;;;;;10.80;4.90;;;13.50;99.90;;;;;;4841775;29;20353;-90
2021/11/08 14:01:56;;;;;;;14.18;5.80;;;13.40;99.90;;;;;;4855038;29;20430;-88
2021/11/08 14:04:41;;;;;;;11.70;5.47;;;13.50;99.90;;;;;;4837004;29;20065;-89
2021/11/08 14:07:09;;;;;;;15.30;6.10;;;13.50;99.90;;;;;;4852941;29;20061;-89
2021/11/08 14:09:40;;;;;;;17.33;6.85;;;13.40;99.90;;;;;;4838134;29;20146;-88
2021/11/08 14:12:10;;;;;;;15.55;5.88;;;13.50;99.90;;;;;;4831264;29;20645;-88
2021/11/08 14:14:38;;;;;;;8.93;4.90;;;13.50;99.90;;;;;;4853446;29;20688;-89
2021/11/08 14:17:13;;;;;;;9.07;4.30;;;13.50;99.90;;;;;;4840609;29;20050;-88
2021/11/08 14:19:42;;;;;;;9.70;4.50;;;13.60;99.90;;;;;;4838293;29;20056;-89
2021/11/08 14:22:09;;;;;;;13.25;5.00;;;13.60;99.90;;;;;;4853518;29;20126;-88
2021/11/08 14:24:46;;;;;;;10.27;4.88;;;13.60;99.90;;;;;;4841048;29;20049;-89
2021/11/08 14:27:17;;;;;;;12.23;5.30;;;13.60;99.90;;;;;;4833451;29;20046;-90
2021/11/08 14:29:48;;;;;;;12.63;6.47;;;13.60;99.90;;;;;;4846705;29;20057;-90
2021/11/08 14:32:32;;;;;;;10.48;4.90;;;13.70;99.90;;;;;;4853924;29;20061;-90
2021/11/08 14:35:06;;;;;;;10.80;4.47;;;13.70;99.90;;;;;;4867439;29;20049;-91
2021/11/08 14:38:12;;;;;;;10.02;3.80;;;13.70;99.90;;;;;;4844999;29;20130;-91
2021/11/08 14:40:45;;;;;;;9.60;4.15;;;13.70;99.90;;;;;;4864009;29;20049;-91
2021/11/08 14:43:17;;;;;;;7.50;3.05;;;13.60;99.90;;;;;;4862609;29;20056;-92
2021/11/08 14:46:04;;;;;;;6.65;3.00;;;13.70;99.90;;;;;;4857377;29;20085;-90
2021/11/08 14:48:34;;;;;;;8.82;3.63;;;13.60;99.90;;;;;;4840484;29;20065;-91
2021/11/08 14:51:22;;;;;;;9.63;3.45;;;13.60;99.90;;;;;;4827316;29;20133;-90
2021/11/08 14:54:01;;;;;;;8.70;3.67;;;13.60;99.90;;;;;;4855928;29;20121;-89
2021/11/08 14:56:36;;;;;;;7.13;3.63;;;13.60;99.90;;;;;;4857073;29;20514;-90
2021/11/08 14:59:14;;;;;;;9.80;3.78;;;13.60;99.90;;;;;;4838566;29;20045;-90
2021/11/08 15:01:45;;;;;;;8.98;5.18;;;13.50;99.90;;;;;;4843591;29;20105;-90
2021/11/08 15:04:21;;;;;;;10.95;3.70;;;13.50;99.90;;;;;;4858169;29;20049;-91
2021/11/08 15:07:06;;;;;;;9.18;3.63;;;13.50;99.90;;;;;;4859232;29;20061;-90
2021/11/08 15:09:42;;;;;;;12.23;3.58;;;13.40;99.90;;;;;;4825508;29;20050;-89
2021/11/08 15:12:18;;;;;;;8.73;3.08;;;13.50;99.90;;;;;;4868542;29;20467;-90
2021/11/08 15:14:48;;;;;;;7.60;3.53;;;13.40;99.90;;;;;;4865776;29;20046;-90
2021/11/08 15:17:25;;;;;;;11.32;4.22;;;13.40;99.90;;;;;;4848075;29;20056;-90
2021/11/08 15:19:52;;;;;;;6.47;2.92;;;13.30;99.90;;;;;;4872842;29;20129;-89
2021/11/08 15:22:28;;;;;;;12.85;6.63;;;13.40;99.90;;;;;;4839581;29;20050;-89
2021/11/08 15:24:55;;;;;;;8.68;4.72;;;13.40;99.90;;;;;;4873538;29;20053;-90
2021/11/08 15:27:29;;;;;;;6.72;3.83;;;13.40;99.90;;;;;;4863739;29;20053;-90
2021/11/08 15:30:07;;;;;;;7.38;3.45;;;13.40;99.90;;;;;;4863608;29;20057;-88
2021/11/08 15:32:34;;;;;;;4.93;2.80;;;13.40;99.90;;;;;;4846951;29;20046;-90
2021/11/08 15:35:08;;;;;;;5.65;2.97;;;13.40;99.90;;;;;;4863426;29;20053;-91
2021/11/08 15:37:35;;;;;;;5.05;2.95;;;13.40;99.90;;;;;;4842860;29;20054;-91
2021/11/08 15:40:03;;;;;;;4.93;3.55;;;13.40;99.90;;;;;;4843371;29;20419;-92
2021/11/08 15:42:30;;;;;;;4.57;3.35;;;13.40;99.90;;;;;;4857352;29;20458;-92
2021/11/08 15:44:57;;;;;;;9.25;3.00;;;13.40;99.90;;;;;;4847268;29;20114;-91
2021/11/08 15:47:24;;;;;;;7.40;3.00;;;13.40;99.90;;;;;;4846299;29;20061;-92
2021/11/08 15:49:51;;;;;;;7.53;3.08;;;13.40;99.90;;;;;;4846924;29;20049;-91
2021/11/08 15:52:18;;;;;;;5.97;3.40;;;13.30;99.90;;;;;;4861094;29;20053;-90
2021/11/08 15:54:45;;;;;;;7.30;2.90;;;13.30;99.90;;;;;;4847116;29;20101;-92
2021/11/08 15:57:17;;;;;;;7.05;3.40;;;13.30;99.90;;;;;;4853830;29;20105;-91
2021/11/08 15:59:45;;;;;;;6.30;3.50;;;13.30;99.90;;;;;;4848826;29;20081;-91
2021/11/08 16:02:12;;;;;;;8.47;3.57;;;13.20;99.90;;;;;;4866587;29;20514;-90
2021/11/08 16:04:39;;;;;;;6.82;3.75;;;13.20;99.90;;;;;;4848567;29;20057;-91
2021/11/08 16:07:06;;;;;;;8.43;3.90;;;13.20;99.90;;;;;;4859810;29;20053;-91
2021/11/08 16:09:33;;;;;;;5.85;4.18;;;13.20;99.90;;;;;;4854104;29;20045;-89
2021/11/08 16:12:01;;;;;;;4.93;3.85;;;13.20;99.90;;;;;;4865630;29;20082;-90
2021/11/08 16:14:28;;;;;;;9.30;6.47;;;13.20;99.90;;;;;;4841824;29;20049;-91
2021/11/08 16:16:55;;;;;;;13.73;8.95;;;13.10;99.90;;;;;;4841869;29;20082;-89
2021/11/08 16:19:23;;;;;;;22.20;12.55;;;13.10;99.90;;;;;;4859819;29;20045;-90
2021/11/08 16:21:50;;;;;;;17.98;14.00;;;13.10;99.90;;;;;;4860587;29;20053;-91
2021/11/08 16:24:21;;;;;;;15.88;10.40;;;13.10;99.90;;;;;;4846363;29;20407;-91
2021/11/08 16:26:51;;;;;;;16.80;10.07;;;13.10;99.90;;;;;;4846290;29;20066;-92
2021/11/08 16:29:21;;;;;;;18.17;10.82;;;13.10;99.90;;;;;;4863052;29;20061;-93
2021/11/08 16:31:49;;;;;;;27.88;13.90;;;13.00;99.90;;;;;;4862701;29;20061;-93
2021/11/08 16:34:16;;;;;;;26.17;13.85;;;13.00;99.90;;;;;;4843767;29;20045;-93
2021/11/08 16:36:43;;;;;;;19.70;11.93;;;13.00;99.90;;;;;;4860959;29;20049;-93
2021/11/08 16:39:14;;;;;;;19.58;12.43;;;13.00;99.90;;;;;;4845742;29;20102;-82
2021/11/08 16:41:42;;;;;;;25.55;14.45;;;13.00;99.90;;;;;;4860375;29;20060;-82
2021/11/08 16:44:09;;;;;;;21.40;13.40;;;13.00;99.90;;;;;;4860259;29;20049;-83
2021/11/08 16:46:38;;;;;;;23.93;13.23;;;13.00;99.90;;;;;;4862093;29;20056;-89
2021/11/08 16:49:06;;;;;;;21.52;14.57;;;13.00;99.90;;;;;;4827514;29;20056;-88
2021/11/08 16:51:38;;;;;;;28.73;15.15;;;13.00;99.90;;;;;;4856182;29;20057;-89
2021/11/08 16:54:05;;;;;;;27.90;14.70;;;12.90;99.90;;;;;;4857135;29;20105;-89
2021/11/08 16:56:34;;;;;;;22.10;9.77;;;12.90;99.90;;;;;;4844635;29;20053;-89
2021/11/08 16:59:03;;;;;;;18.13;8.93;;;12.90;99.90;;;;;;4860115;29;20293;-87
2021/11/08 17:01:32;;;;;;;23.98;10.55;;;12.90;99.90;;;;;;4853591;29;20054;-88
2021/11/08 17:03:59;;;;;;;24.92;12.98;;;12.90;99.90;;;;;;4856665;29;20097;-88
2021/11/08 17:06:27;;;;;;;23.52;10.63;;;12.80;99.90;;;;;;4861872;29;20102;-88
2021/11/08 17:09:00;;;;;;;30.63;8.90;;;12.80;99.90;;;;;;4854907;29;20049;-88
2021/11/08 17:13:59;;;;;;;41.92;13.27;;;12.80;99.90;;;;;;4861542;29;20056;-88
2021/11/08 17:16:27;;;;;;;31.20;12.95;;;12.80;99.90;;;;;;4842644;29;20057;-88
2021/11/08 17:18:56;;;;;;;31.15;13.70;;;12.80;99.90;;;;;;4860218;29;20057;-90
2021/11/08 17:21:25;;;;;;;;;;;12.70;99.90;;;;;;4859917;29;20053;-88
2021/11/08 17:23:52;;;;;;;29.88;13.93;;;12.80;99.90;;;;;;4843074;29;20326;-88
2021/11/08 17:26:21;;;;;;;37.42;13.98;;;12.70;99.90;;;;;;4860309;29;20053;-89
2021/11/08 17:28:49;;;;;;;50.00;17.10;;;12.70;99.90;;;;;;4862451;29;20122;-89
2021/11/08 17:31:17;;;;;;;35.75;17.23;;;12.70;99.90;;;;;;4861823;29;20064;-87
2021/11/08 17:33:45;;;;;;;53.93;22.63;;;12.70;99.90;;;;;;4847120;29;20052;-88
2021/11/08 17:36:12;;;;;;;49.30;21.65;;;12.70;99.90;;;;;;4873630;29;20490;-87
2021/11/08 17:38:40;;;;;;;37.47;18.55;;;12.70;99.90;;;;;;4861741;29;20045;-90
2021/11/08 17:41:11;;;;;;;39.97;20.73;;;12.70;99.90;;;;;;4845089;29;20054;-89
2021/11/08 17:43:41;;;;;;;39.67;16.58;;;12.70;99.90;;;;;;4863022;29;20160;-88
2021/11/08 17:46:09;;;;;;;36.70;15.35;;;12.70;99.90;;;;;;4844022;29;20061;-90
2021/11/08 17:48:36;;;;;;;39.22;17.67;;;12.70;99.90;;;;;;4851637;29;20050;-90
2021/11/08 17:51:04;;;;;;;34.20;15.85;;;12.70;99.90;;;;;;4846207;29;20054;-90
2021/11/08 17:53:31;;;;;;;43.22;17.13;;;12.70;99.90;;;;;;4862325;29;20476;-89
2021/11/08 17:56:23;;;;;;;44.85;13.48;;;12.70;99.90;;;;;;4866074;29;20050;-93
2021/11/08 17:58:51;;;;;;;54.03;14.77;;;12.70;99.90;;;;;;4856735;29;20045;-96
2021/11/08 18:01:22;;;;;;;46.55;16.38;;;12.70;99.90;;;;;;4854080;29;20073;-94
2021/11/08 18:03:49;;;;;;;101.00;21.45;;;12.70;99.90;;;;;;4844133;29;20057;-95
2021/11/08 18:06:17;;;;;;;116.15;25.02;;;12.70;99.90;;;;;;4853776;29;20143;-94
2021/11/08 18:08:45;;;;;;;90.53;21.65;;;12.70;99.90;;;;;;4853787;29;20145;-95
2021/11/08 18:11:12;;;;;;;103.78;27.92;;;12.60;99.90;;;;;;4849456;29;20050;-91
2021/11/08 18:13:40;;;;;;;106.70;17.70;;;12.70;99.90;;;;;;4845856;29;20192;-92
2021/11/08 18:16:08;;;;;;;100.10;14.52;;;12.60;99.90;;;;;;4855841;29;20110;-93
2021/11/08 18:18:36;;;;;;;63.58;16.85;;;12.60;99.90;;;;;;4856767;29;20053;-93
2021/11/08 18:23:45;;;;;;;68.43;18.38;;;12.70;99.90;;;;;;4852118;29;20119;-91
2021/11/08 18:28:57;;;;;;;62.85;23.80;;;12.60;99.90;;;;;;4856152;29;20129;-89
2021/11/08 18:31:25;;;;;;;130.45;26.63;;;12.60;99.90;;;;;;4836789;29;21178;-89
2021/11/08 18:33:53;;;;;;;95.68;28.33;;;12.60;99.90;;;;;;4849373;29;20059;-90
2021/11/08 18:36:22;;;;;;;114.73;26.93;;;12.60;99.90;;;;;;4859793;29;20053;-90
2021/11/08 18:38:51;;;;;;;90.65;25.92;;;12.60;99.90;;;;;;4858435;29;20053;-92
2021/11/08 18:41:22;;;;;;;85.20;23.33;;;12.60;99.90;;;;;;4861077;29;20051;-92
2021/11/08 18:43:49;;;;;;;161.75;30.70;;;12.60;99.90;;;;;;4863430;29;20057;-89
2021/11/08 18:46:17;;;;;;;99.00;23.05;;;12.60;99.90;;;;;;4855846;29;20503;-89
2021/11/08 18:48:45;;;;;;;49.40;18.55;;;12.60;99.90;;;;;;4854619;29;20658;-90
2021/11/08 18:51:13;;;;;;;51.40;18.45;;;12.60;99.90;;;;;;4859783;29;20056;-90
2021/11/08 18:53:40;;;;;;;78.65;24.60;;;12.60;99.90;;;;;;4857993;29;20128;-91
2021/11/08 18:56:10;;;;;;;95.57;29.38;;;12.60;99.90;;;;;;4859089;29;20053;-90
2021/11/08 18:58:40;;;;;;;123.00;49.28;;;12.60;99.90;;;;;;4860697;29;20102;-90
2021/11/08 19:01:08;;;;;;;67.70;31.48;;;12.60;99.90;;;;;;4859831;29;20113;-91
2021/11/08 19:03:46;;;;;;;45.58;24.15;;;12.60;99.90;;;;;;4841265;29;20053;-90
2021/11/08 19:09:14;;;;;;;70.22;22.92;;;12.60;99.90;;;;;;4801991;29;20308;-90
2021/11/08 19:11:42;;;;;;;91.50;24.02;;;12.60;99.90;;;;;;4804952;29;20055;-90
2021/11/08 19:14:12;;;;;;;116.03;41.25;;;12.60;99.90;;;;;;4804770;29;20055;-89
2021/11/08 19:16:41;;;;;;;108.63;35.13;;;12.60;99.90;;;;;;4804341;29;20063;-90
2021/11/08 19:19:11;;;;;;;138.07;40.30;;;12.60;99.90;;;;;;4803624;29;20054;-92
2021/11/08 19:21:40;;;;;;;79.60;22.15;;;12.60;99.90;;;;;;4802867;29;20080;-89
2021/11/08 19:24:08;;;;;;;;;;;12.60;99.90;;;;;;4804434;29;20046;-89
2021/11/08 19:26:36;;;;;;;97.47;32.57;;;12.60;99.90;;;;;;4802426;29;20138;-92
2021/11/08 19:29:10;;;;;;;131.50;34.35;;;12.60;99.90;;;;;;4802954;29;20055;-91
2021/11/08 19:31:37;;;;;;;95.45;33.55;;;12.60;99.90;;;;;;4788857;29;20058;-90
2021/11/08 19:39:24;;;;;;;120.55;38.53;;;12.60;99.90;;;;;;4802411;29;20059;-92
2021/11/08 19:41:52;;;;;;;156.90;43.17;;;12.60;99.90;;;;;;4802971;29;20054;-90
2021/11/08 19:44:19;;;;;;;111.68;30.92;;;12.50;99.90;;;;;;4816525;29;20054;-91
2021/11/08 19:46:46;;;;;;;103.40;27.25;;;12.50;99.90;;;;;;4860772;29;20121;-91
2021/11/08 19:49:15;;;;;;;90.13;25.33;;;12.50;99.90;;;;;;4847675;29;20053;-88
2021/11/08 19:51:41;;;;;;;;;;;12.50;99.90;;;;;;4859622;29;20057;-92
2021/11/08 19:54:08;;;;;;;178.98;38.25;;;12.50;99.90;;;;;;4852262;29;19986;-89
2021/11/08 19:56:36;;;;;;;170.95;38.53;;;12.50;99.90;;;;;;4853487;29;20807;-91
2021/11/08 19:59:04;;;;;;;155.48;39.65;;;12.50;99.90;;;;;;4858993;29;20098;-91
2021/11/08 20:01:30;;;;;;;116.07;25.35;;;12.50;99.90;;;;;;4854622;29;20049;-91
2021/11/08 20:04:06;;;;;;;67.78;18.40;;;12.50;99.90;;;;;;4856513;29;20050;-92
2021/11/08 20:06:36;;;;;;;76.20;16.23;;;12.50;99.90;;;;;;4839921;29;20045;-94